sensor_id;sensor_type;location;lat;lon;timestamp;pressure;altitude;pressure_sealevel;temperature;humidity
54948;BME280;41113;41.882;12.530;2023-04-01T00:00:46;100474.72;;;14.42;83.87
54948;BME280;41113;41.882;12.530;2023-04-01T00:03:12;100469.63;;;14.39;83.96
54948;BME280;41113;41.882;12.530;2023-04-01T00:05:38;100450.56;;;14.40;84.03
54948;BME280;41113;41.882;12.530;2023-04-01T00:08:03;100439.75;;;14.40;83.76
54948;BME280;41113;41.882;12.530;2023-04-01T00:10:29;100444.66;;;14.37;83.78
54948;BME280;41113;41.882;12.530;2023-04-01T00:12:54;100422.84;;;14.30;84.23
54948;BME280;41113;41.882;12.530;2023-04-01T00:15:20;100424.56;;;14.31;84.07
54948;BME280;41113;41.882;12.530;2023-04-01T00:17:45;100429.09;;;14.30;84.15
54948;BME280;41113;41.882;12.530;2023-04-01T00:20:11;100411.19;;;14.29;83.98
54948;BME280;41113;41.882;12.530;2023-04-01T00:22:37;100401.22;;;14.30;84.20
54948;BME280;41113;41.882;12.530;2023-04-01T00:25:04;100404.25;;;14.27;84.39
54948;BME280;41113;41.882;12.530;2023-04-01T00:27:29;100413.38;;;14.26;84.32
54948;BME280;41113;41.882;12.530;2023-04-01T00:29:55;100426.88;;;14.26;84.35
54948;BME280;41113;41.882;12.530;2023-04-01T00:32:20;100418.78;;;14.26;84.35
54948;BME280;41113;41.882;12.530;2023-04-01T00:34:45;100416.06;;;14.26;84.54
54948;BME280;41113;41.882;12.530;2023-04-01T00:37:11;100422.16;;;14.28;84.29
54948;BME280;41113;41.882;12.530;2023-04-01T00:39:37;100421.66;;;14.24;84.63
54948;BME280;41113;41.882;12.530;2023-04-01T00:42:03;100433.47;;;14.23;84.52
54948;BME280;41113;41.882;12.530;2023-04-01T00:44:31;100416.41;;;14.23;84.70
54948;BME280;41113;41.882;12.530;2023-04-01T00:46:58;100422.31;;;14.26;84.85
54948;BME280;41113;41.882;12.530;2023-04-01T00:49:27;100429.09;;;14.30;84.67
54948;BME280;41113;41.882;12.530;2023-04-01T00:51:56;100426.25;;;14.32;84.78
54948;BME280;41113;41.882;12.530;2023-04-01T00:54:24;100415.44;;;14.32;84.75
54948;BME280;41113;41.882;12.530;2023-04-01T00:56:56;100417.81;;;14.35;84.83
54948;BME280;41113;41.882;12.530;2023-04-01T00:59:29;100411.72;;;14.33;84.96
54948;BME280;41113;41.882;12.530;2023-04-01T01:01:56;100409.19;;;14.31;85.40
54948;BME280;41113;41.882;12.530;2023-04-01T01:04:23;100406.31;;;14.33;85.25
54948;BME280;41113;41.882;12.530;2023-04-01T01:07:19;100399.41;;;14.39;85.61
54948;BME280;41113;41.882;12.530;2023-04-01T01:09:52;100384.38;;;14.36;85.28
54948;BME280;41113;41.882;12.530;2023-04-01T01:15:20;100373.22;;;14.39;85.37
54948;BME280;41113;41.882;12.530;2023-04-01T01:18:03;100371.69;;;14.37;85.28
54948;BME280;41113;41.882;12.530;2023-04-01T01:23:52;100369.84;;;14.37;86.08
54948;BME280;41113;41.882;12.530;2023-04-01T01:32:11;100338.09;;;14.31;87.96
54948;BME280;41113;41.882;12.530;2023-04-01T01:34:48;100349.41;;;14.35;87.24
54948;BME280;41113;41.882;12.530;2023-04-01T01:37:19;100342.34;;;14.33;87.43
54948;BME280;41113;41.882;12.530;2023-04-01T01:39:55;100342.34;;;14.33;88.76
54948;BME280;41113;41.882;12.530;2023-04-01T01:42:25;100334.06;;;14.35;87.97
54948;BME280;41113;41.882;12.530;2023-04-01T01:44:52;100317.84;;;14.35;88.85
54948;BME280;41113;41.882;12.530;2023-04-01T01:47:20;100301.28;;;14.38;88.57
54948;BME280;41113;41.882;12.530;2023-04-01T01:49:48;100295.38;;;14.35;89.31
54948;BME280;41113;41.882;12.530;2023-04-01T01:52:13;100299.94;;;14.34;89.17
54948;BME280;41113;41.882;12.530;2023-04-01T01:54:53;100303.97;;;14.30;90.28
54948;BME280;41113;41.882;12.530;2023-04-01T01:57:24;100305.84;;;14.29;91.24
54948;BME280;41113;41.882;12.530;2023-04-01T01:59:54;100308.41;;;14.31;90.21
54948;BME280;41113;41.882;12.530;2023-04-01T02:02:21;100299.59;;;14.29;90.61
54948;BME280;41113;41.882;12.530;2023-04-01T02:04:49;100292.00;;;14.32;89.99
54948;BME280;41113;41.882;12.530;2023-04-01T02:07:24;100305.34;;;14.34;89.93
54948;BME280;41113;41.882;12.530;2023-04-01T02:09:53;100300.78;;;14.35;91.17
54948;BME280;41113;41.882;12.530;2023-04-01T02:12:19;100299.94;;;14.34;90.59
54948;BME280;41113;41.882;12.530;2023-04-01T02:14:55;100285.78;;;14.32;91.48
54948;BME280;41113;41.882;12.530;2023-04-01T02:17:25;100288.47;;;14.32;91.77
54948;BME280;41113;41.882;12.530;2023-04-01T02:19:57;100288.59;;;14.30;91.29
54948;BME280;41113;41.882;12.530;2023-04-01T02:22:28;100291.81;;;14.26;92.09
54948;BME280;41113;41.882;12.530;2023-04-01T02:24:58;100307.69;;;14.29;92.14
54948;BME280;41113;41.882;12.530;2023-04-01T02:27:25;100312.59;;;14.25;92.63
54948;BME280;41113;41.882;12.530;2023-04-01T02:29:51;100302.81;;;14.24;93.05
54948;BME280;41113;41.882;12.530;2023-04-01T02:32:18;100297.25;;;14.18;93.38
54948;BME280;41113;41.882;12.530;2023-04-01T02:34:45;100297.59;;;14.15;94.44
54948;BME280;41113;41.882;12.530;2023-04-01T02:37:13;100298.59;;;14.14;94.15
54948;BME280;41113;41.882;12.530;2023-04-01T02:39:40;100304.00;;;14.14;93.63
54948;BME280;41113;41.882;12.530;2023-04-01T02:42:07;100310.75;;;14.18;93.96
54948;BME280;41113;41.882;12.530;2023-04-01T02:44:33;100309.91;;;14.17;93.25
54948;BME280;41113;41.882;12.530;2023-04-01T02:46:58;100303.66;;;14.17;94.55
54948;BME280;41113;41.882;12.530;2023-04-01T02:49:24;100310.75;;;14.18;93.73
54948;BME280;41113;41.882;12.530;2023-04-01T02:51:49;100311.09;;;14.15;94.38
54948;BME280;41113;41.882;12.530;2023-04-01T02:54:14;100312.78;;;14.16;94.52
54948;BME280;41113;41.882;12.530;2023-04-01T02:56:40;100317.16;;;14.17;93.85
54948;BME280;41113;41.882;12.530;2023-04-01T02:59:05;100308.72;;;14.20;93.59
54948;BME280;41113;41.882;12.530;2023-04-01T03:01:31;100320.19;;;14.22;93.48
54948;BME280;41113;41.882;12.530;2023-04-01T03:03:56;100309.03;;;14.25;93.55
54948;BME280;41113;41.882;12.530;2023-04-01T03:06:22;100306.69;;;14.22;94.06
54948;BME280;41113;41.882;12.530;2023-04-01T03:08:47;100295.22;;;14.20;94.07
54948;BME280;41113;41.882;12.530;2023-04-01T03:11:13;100301.63;;;14.19;94.05
54948;BME280;41113;41.882;12.530;2023-04-01T03:13:38;100285.41;;;14.19;93.54
54948;BME280;41113;41.882;12.530;2023-04-01T03:16:04;100292.84;;;14.17;93.50
54948;BME280;41113;41.882;12.530;2023-04-01T03:18:30;100298.94;;;14.11;95.34
54948;BME280;41113;41.882;12.530;2023-04-01T03:20:55;100295.56;;;14.09;94.62
54948;BME280;41113;41.882;12.530;2023-04-01T03:23:20;100286.44;;;14.10;94.89
54948;BME280;41113;41.882;12.530;2023-04-01T03:25:46;100291.34;;;14.06;94.94
54948;BME280;41113;41.882;12.530;2023-04-01T03:28:12;100281.06;;;14.01;94.66
54948;BME280;41113;41.882;12.530;2023-04-01T03:30:38;100286.28;;;14.03;95.13
54948;BME280;41113;41.882;12.530;2023-04-01T03:33:04;100288.97;;;14.03;94.55
54948;BME280;41113;41.882;12.530;2023-04-01T03:35:29;100297.59;;;14.07;93.94
54948;BME280;41113;41.882;12.530;2023-04-01T03:37:55;100285.94;;;14.06;94.13
54948;BME280;41113;41.882;12.530;2023-04-01T03:40:22;100285.44;;;14.02;95.29
54948;BME280;41113;41.882;12.530;2023-04-01T03:42:47;100278.34;;;14.01;94.74
54948;BME280;41113;41.882;12.530;2023-04-01T03:45:13;100291.19;;;13.99;95.72
54948;BME280;41113;41.882;12.530;2023-04-01T03:47:39;100293.50;;;13.94;95.89
54948;BME280;41113;41.882;12.530;2023-04-01T03:50:06;100297.91;;;13.87;95.39
54948;BME280;41113;41.882;12.530;2023-04-01T03:52:32;100298.56;;;13.81;95.29
54948;BME280;41113;41.882;12.530;2023-04-01T03:54:57;100303.13;;;13.81;95.37
54948;BME280;41113;41.882;12.530;2023-04-01T03:57:22;100304.31;;;13.78;96.66
54948;BME280;41113;41.882;12.530;2023-04-01T03:59:48;100306.00;;;13.79;96.65
54948;BME280;41113;41.882;12.530;2023-04-01T04:02:13;100299.56;;;13.80;95.55
54948;BME280;41113;41.882;12.530;2023-04-01T04:04:39;100301.59;;;13.78;95.67
54948;BME280;41113;41.882;12.530;2023-04-01T04:07:06;100300.94;;;13.76;95.50
54948;BME280;41113;41.882;12.530;2023-04-01T04:09:31;100300.09;;;13.76;96.07
54948;BME280;41113;41.882;12.530;2023-04-01T04:11:57;100304.63;;;13.75;95.55
54948;BME280;41113;41.882;12.530;2023-04-01T04:14:23;100317.78;;;13.78;95.58
54948;BME280;41113;41.882;12.530;2023-04-01T04:16:48;100307.69;;;13.80;95.55
54948;BME280;41113;41.882;12.530;2023-04-01T04:19:13;100296.72;;;13.82;95.99
54948;BME280;41113;41.882;12.530;2023-04-01T04:21:40;100291.31;;;13.82;96.77
54948;BME280;41113;41.882;12.530;2023-04-01T04:24:06;100314.75;;;13.81;96.53
54948;BME280;41113;41.882;12.530;2023-04-01T04:26:31;100315.75;;;13.72;98.35
54948;BME280;41113;41.882;12.530;2023-04-01T04:28:56;100317.47;;;13.73;98.47
54948;BME280;41113;41.882;12.530;2023-04-01T04:31:23;100313.75;;;13.74;97.99
54948;BME280;41113;41.882;12.530;2023-04-01T04:33:49;100309.03;;;13.76;96.76
54948;BME280;41113;41.882;12.530;2023-04-01T04:36:15;100313.06;;;13.80;95.68
54948;BME280;41113;41.882;12.530;2023-04-01T04:38:40;100304.63;;;13.75;95.16
54948;BME280;41113;41.882;12.530;2023-04-01T04:41:13;100313.41;;;13.77;94.66
54948;BME280;41113;41.882;12.530;2023-04-01T04:43:39;100321.84;;;13.82;94.30
54948;BME280;41113;41.882;12.530;2023-04-01T04:46:07;100321.50;;;13.85;93.55
54948;BME280;41113;41.882;12.530;2023-04-01T04:48:32;100332.31;;;13.85;93.28
54948;BME280;41113;41.882;12.530;2023-04-01T04:50:58;100339.41;;;13.86;92.80
54948;BME280;41113;41.882;12.530;2023-04-01T04:53:23;100338.56;;;13.86;92.76
54948;BME280;41113;41.882;12.530;2023-04-01T04:55:50;100339.06;;;13.81;92.62
54948;BME280;41113;41.882;12.530;2023-04-01T04:58:16;100334.34;;;13.83;92.74
54948;BME280;41113;41.882;12.530;2023-04-01T05:00:43;100331.63;;;13.83;92.69
54948;BME280;41113;41.882;12.530;2023-04-01T05:03:09;100340.22;;;13.79;93.01
54948;BME280;41113;41.882;12.530;2023-04-01T05:05:35;100338.03;;;13.74;93.06
54948;BME280;41113;41.882;12.530;2023-04-01T05:08:01;100336.34;;;13.73;93.21
54948;BME280;41113;41.882;12.530;2023-04-01T05:10:26;100341.41;;;13.68;93.42
54948;BME280;41113;41.882;12.530;2023-04-01T05:12:52;100349.50;;;13.68;93.63
54948;BME280;41113;41.882;12.530;2023-04-01T05:15:17;100341.75;;;13.73;93.29
54948;BME280;41113;41.882;12.530;2023-04-01T05:17:43;100334.66;;;13.80;92.88
54948;BME280;41113;41.882;12.530;2023-04-01T05:20:08;100335.19;;;13.84;92.50
54948;BME280;41113;41.882;12.530;2023-04-01T05:22:34;100340.25;;;13.87;92.55
54948;BME280;41113;41.882;12.530;2023-04-01T05:24:59;100343.50;;;14.15;92.43
54948;BME280;41113;41.882;12.530;2023-04-01T05:27:24;100345.53;;;14.53;90.32
54948;BME280;41113;41.882;12.530;2023-04-01T05:29:50;100356.28;;;14.94;88.83
54948;BME280;41113;41.882;12.530;2023-04-01T05:32:15;100369.00;;;14.85;86.95
54948;BME280;41113;41.882;12.530;2023-04-01T05:34:41;100369.53;;;14.73;87.90
54948;BME280;41113;41.882;12.530;2023-04-01T05:37:06;100372.53;;;15.02;87.39
54948;BME280;41113;41.882;12.530;2023-04-01T05:39:38;100365.81;;;15.37;85.84
54948;BME280;41113;41.882;12.530;2023-04-01T05:42:05;100357.09;;;15.58;84.37
54948;BME280;41113;41.882;12.530;2023-04-01T05:44:31;100355.75;;;15.62;83.64
54948;BME280;41113;41.882;12.530;2023-04-01T05:46:56;100363.84;;;15.70;83.33
54948;BME280;41113;41.882;12.530;2023-04-01T05:49:22;100374.63;;;15.31;83.54
54948;BME280;41113;41.882;12.530;2023-04-01T05:51:47;100381.31;;;15.04;85.43
54948;BME280;41113;41.882;12.530;2023-04-01T05:54:13;100382.16;;;15.52;85.34
54948;BME280;41113;41.882;12.530;2023-04-01T05:56:38;100383.81;;;16.23;82.35
54948;BME280;41113;41.882;12.530;2023-04-01T05:59:03;100390.09;;;16.84;79.55
54948;BME280;41113;41.882;12.530;2023-04-01T06:01:29;100392.97;;;17.35;77.55
54948;BME280;41113;41.882;12.530;2023-04-01T06:03:54;100385.00;;;17.78;75.29
54948;BME280;41113;41.882;12.530;2023-04-01T06:06:31;100399.81;;;18.11;73.64
54948;BME280;41113;41.882;12.530;2023-04-01T06:09:07;100389.34;;;18.51;72.58
54948;BME280;41113;41.882;12.530;2023-04-01T06:17:16;100389.63;;;18.77;70.01
54948;BME280;41113;41.882;12.530;2023-04-01T06:27:44;100410.78;;;19.10;70.11
54948;BME280;41113;41.882;12.530;2023-04-01T06:41:09;100407.19;;;19.03;68.84
54948;BME280;41113;41.882;12.530;2023-04-01T06:49:06;100414.75;;;18.79;69.51
54948;BME280;41113;41.882;12.530;2023-04-01T06:52:02;100404.16;;;18.63;66.75
54948;BME280;41113;41.882;12.530;2023-04-01T06:54:37;100411.75;;;18.53;69.75
54948;BME280;41113;41.882;12.530;2023-04-01T06:57:21;100419.53;;;18.56;69.50
54948;BME280;41113;41.882;12.530;2023-04-01T06:59:51;100424.00;;;18.42;69.87
54948;BME280;41113;41.882;12.530;2023-04-01T07:02:31;100406.84;;;18.42;69.41
54948;BME280;41113;41.882;12.530;2023-04-01T07:04:59;100407.16;;;18.32;69.52
54948;BME280;41113;41.882;12.530;2023-04-01T07:07:50;100413.78;;;18.08;68.74
54948;BME280;41113;41.882;12.530;2023-04-01T07:13:12;100408.47;;;18.00;69.65
54948;BME280;41113;41.882;12.530;2023-04-01T07:15:42;100417.66;;;17.99;69.34
54948;BME280;41113;41.882;12.530;2023-04-01T07:18:23;100423.28;;;17.97;68.73
54948;BME280;41113;41.882;12.530;2023-04-01T07:20:54;100431.81;;;17.94;69.10
54948;BME280;41113;41.882;12.530;2023-04-01T07:23:26;100436.50;;;17.86;68.51
54948;BME280;41113;41.882;12.530;2023-04-01T07:26:00;100451.22;;;17.77;67.93
54948;BME280;41113;41.882;12.530;2023-04-01T07:28:30;100458.16;;;17.64;67.41
54948;BME280;41113;41.882;12.530;2023-04-01T07:31:36;100455.81;;;17.76;65.42
54948;BME280;41113;41.882;12.530;2023-04-01T07:36:42;100456.66;;;17.91;64.96
54948;BME280;41113;41.882;12.530;2023-04-01T07:39:34;100455.25;;;17.95;60.04
54948;BME280;41113;41.882;12.530;2023-04-01T07:42:21;100455.72;;;17.99;64.07
54948;BME280;41113;41.882;12.530;2023-04-01T07:47:48;100459.84;;;17.95;61.13
54948;BME280;41113;41.882;12.530;2023-04-01T07:50:28;100456.09;;;17.96;63.10
54948;BME280;41113;41.882;12.530;2023-04-01T07:53:16;100460.69;;;17.81;56.81
54948;BME280;41113;41.882;12.530;2023-04-01T07:55:50;100455.06;;;17.82;62.28
54948;BME280;41113;41.882;12.530;2023-04-01T08:01:22;100464.16;;;17.75;61.27
54948;BME280;41113;41.882;12.530;2023-04-01T08:04:35;100469.59;;;17.75;59.70
54948;BME280;41113;41.882;12.530;2023-04-01T08:07:10;100454.13;;;17.60;59.71
54948;BME280;41113;41.882;12.530;2023-04-01T08:09:55;100456.84;;;17.60;58.48
54948;BME280;41113;41.882;12.530;2023-04-01T08:15:49;100452.72;;;17.64;58.53
54948;BME280;41113;41.882;12.530;2023-04-01T08:21:05;100455.16;;;17.74;58.54
54948;BME280;41113;41.882;12.530;2023-04-01T08:23:37;100456.28;;;17.80;58.23
54948;BME280;41113;41.882;12.530;2023-04-01T08:26:12;100459.72;;;17.88;57.91
54948;BME280;41113;41.882;12.530;2023-04-01T08:28:44;100457.88;;;17.89;55.76
54948;BME280;41113;41.882;12.530;2023-04-01T08:31:39;100455.91;;;17.83;56.39
54948;BME280;41113;41.882;12.530;2023-04-01T08:34:20;100459.28;;;17.85;54.64
54948;BME280;41113;41.882;12.530;2023-04-01T08:36:53;100457.59;;;17.84;56.10
54948;BME280;41113;41.882;12.530;2023-04-01T08:39:32;100456.75;;;17.83;56.68
54948;BME280;41113;41.882;12.530;2023-04-01T08:47:45;100471.94;;;17.92;51.75
54948;BME280;41113;41.882;12.530;2023-04-01T08:56:06;100464.63;;;17.93;55.69
54948;BME280;41113;41.882;12.530;2023-04-01T09:01:32;100455.31;;;18.02;53.69
54948;BME280;41113;41.882;12.530;2023-04-01T09:09:36;100458.38;;;18.28;55.00
54948;BME280;41113;41.882;12.530;2023-04-01T09:16:03;100468.78;;;18.46;52.18
54948;BME280;41113;41.882;12.530;2023-04-01T09:24:28;100473.44;;;18.52;50.02
54948;BME280;41113;41.882;12.530;2023-04-01T09:27:09;100478.63;;;18.62;51.77
54948;BME280;41113;41.882;12.530;2023-04-01T09:29:54;100471.56;;;18.68;50.05
54948;BME280;41113;41.882;12.530;2023-04-01T09:37:51;100460.00;;;19.08;53.45
54948;BME280;41113;41.882;12.530;2023-04-01T09:40:30;100462.22;;;18.98;52.94
54948;BME280;41113;41.882;12.530;2023-04-01T09:51:39;100451.28;;;18.70;50.91
54948;BME280;41113;41.882;12.530;2023-04-01T10:00:19;100450.72;;;19.24;50.87
54948;BME280;41113;41.882;12.530;2023-04-01T10:06:06;100433.25;;;19.46;51.42
54948;BME280;41113;41.882;12.530;2023-04-01T10:29:03;100414.34;;;19.38;48.94
54948;BME280;41113;41.882;12.530;2023-04-01T10:36:57;100412.47;;;19.11;51.09
54948;BME280;41113;41.882;12.530;2023-04-01T10:39:55;100400.84;;;19.23;48.58
54948;BME280;41113;41.882;12.530;2023-04-01T10:53:19;100394.03;;;19.75;49.96
54948;BME280;41113;41.882;12.530;2023-04-01T11:04:56;100380.59;;;19.74;49.62
54948;BME280;41113;41.882;12.530;2023-04-01T11:26:38;100358.28;;;20.11;47.32
54948;BME280;41113;41.882;12.530;2023-04-01T11:38:04;100353.78;;;19.77;49.81
54948;BME280;41113;41.882;12.530;2023-04-01T11:43:26;100352.47;;;19.60;46.33
54948;BME280;41113;41.882;12.530;2023-04-01T11:46:14;100364.53;;;19.51;47.81
54948;BME280;41113;41.882;12.530;2023-04-01T11:51:35;100362.59;;;19.73;47.21
54948;BME280;41113;41.882;12.530;2023-04-01T12:02:25;100356.06;;;19.67;46.27
54948;BME280;41113;41.882;12.530;2023-04-01T12:10:53;100358.56;;;19.62;46.09
54948;BME280;41113;41.882;12.530;2023-04-01T12:14:30;100358.53;;;19.55;47.52
54948;BME280;41113;41.882;12.530;2023-04-01T12:16:34;100362.22;;;19.48;47.60
54948;BME280;41113;41.882;12.530;2023-04-01T12:19:12;100355.19;;;19.19;47.82
54948;BME280;41113;41.882;12.530;2023-04-01T12:21:58;100354.69;;;19.09;49.16
54948;BME280;41113;41.882;12.530;2023-04-01T12:24:45;100355.19;;;19.19;48.64
54948;BME280;41113;41.882;12.530;2023-04-01T12:27:22;100356.47;;;19.23;49.17
54948;BME280;41113;41.882;12.530;2023-04-01T12:37:49;100355.41;;;19.24;48.90
54948;BME280;41113;41.882;12.530;2023-04-01T12:48:36;100344.19;;;19.06;48.15
54948;BME280;41113;41.882;12.530;2023-04-01T12:54:25;100350.84;;;18.96;45.59
54948;BME280;41113;41.882;12.530;2023-04-01T13:05:09;100331.56;;;18.91;46.13
54948;BME280;41113;41.882;12.530;2023-04-01T13:08:14;100322.69;;;18.83;46.36
54948;BME280;41113;41.882;12.530;2023-04-01T13:13:44;100317.00;;;18.78;47.68
54948;BME280;41113;41.882;12.530;2023-04-01T13:16:29;100322.03;;;18.81;47.94
54948;BME280;41113;41.882;12.530;2023-04-01T13:21:50;100313.44;;;18.77;46.35
54948;BME280;41113;41.882;12.530;2023-04-01T13:29:41;100309.03;;;18.76;47.64
54948;BME280;41113;41.882;12.530;2023-04-01T13:35:30;100305.38;;;18.62;48.02
54948;BME280;41113;41.882;12.530;2023-04-01T13:38:41;100307.50;;;18.67;47.08
54948;BME280;41113;41.882;12.530;2023-04-01T13:41:22;100302.13;;;18.74;46.97
54948;BME280;41113;41.882;12.530;2023-04-01T13:44:00;100309.28;;;18.81;47.83
54948;BME280;41113;41.882;12.530;2023-04-01T13:57:44;100291.97;;;18.61;46.01
54948;BME280;41113;41.882;12.530;2023-04-01T14:00:22;100281.47;;;18.58;47.63
54948;BME280;41113;41.882;12.530;2023-04-01T14:06:06;100284.28;;;18.43;46.56
54948;BME280;41113;41.882;12.530;2023-04-01T14:14:21;100279.69;;;18.44;45.68
54948;BME280;41113;41.882;12.530;2023-04-01T14:22:46;100277.59;;;18.46;47.13
54948;BME280;41113;41.882;12.530;2023-04-01T14:28:28;100272.13;;;18.39;47.04
54948;BME280;41113;41.882;12.530;2023-04-01T14:34:00;100278.41;;;18.40;46.83
54948;BME280;41113;41.882;12.530;2023-04-01T14:42:59;100268.81;;;18.44;46.28
54948;BME280;41113;41.882;12.530;2023-04-01T14:48:34;100260.00;;;18.42;45.69
54948;BME280;41113;41.882;12.530;2023-04-01T14:59:07;100252.63;;;18.35;47.92
54948;BME280;41113;41.882;12.530;2023-04-01T15:01:45;100259.47;;;18.25;47.99
54948;BME280;41113;41.882;12.530;2023-04-01T15:04:21;100259.66;;;18.23;48.42
54948;BME280;41113;41.882;12.530;2023-04-01T15:07:18;100251.22;;;18.18;48.27
54948;BME280;41113;41.882;12.530;2023-04-01T15:10:12;100259.59;;;18.17;48.79
54948;BME280;41113;41.882;12.530;2023-04-01T15:18:25;100252.09;;;17.97;50.18
54948;BME280;41113;41.882;12.530;2023-04-01T15:24:22;100244.09;;;17.89;50.49
54948;BME280;41113;41.882;12.530;2023-04-01T15:26:55;100249.06;;;17.86;50.77
54948;BME280;41113;41.882;12.530;2023-04-01T15:29:38;100244.25;;;17.88;50.75
54948;BME280;41113;41.882;12.530;2023-04-01T15:40:57;100237.69;;;17.76;49.22
54948;BME280;41113;41.882;12.530;2023-04-01T15:43:49;100238.47;;;17.69;49.12
54948;BME280;41113;41.882;12.530;2023-04-01T15:49:37;100241.66;;;17.58;51.01
54948;BME280;41113;41.882;12.530;2023-04-01T15:54:57;100242.78;;;17.49;51.48
54948;BME280;41113;41.882;12.530;2023-04-01T16:02:51;100235.69;;;17.48;51.40
54948;BME280;41113;41.882;12.530;2023-04-01T16:15:49;100240.59;;;17.38;51.45
54948;BME280;41113;41.882;12.530;2023-04-01T16:24:14;100249.88;;;17.29;51.84
54948;BME280;41113;41.882;12.530;2023-04-01T16:26:53;100252.41;;;17.30;52.00
54948;BME280;41113;41.882;12.530;2023-04-01T16:32:37;100250.81;;;17.21;52.07
54948;BME280;41113;41.882;12.530;2023-04-01T16:38:03;100250.72;;;17.15;51.63
54948;BME280;41113;41.882;12.530;2023-04-01T16:40:40;100254.09;;;17.17;52.62
54948;BME280;41113;41.882;12.530;2023-04-01T16:43:19;100247.75;;;17.09;51.22
54948;BME280;41113;41.882;12.530;2023-04-01T16:46:17;100244.31;;;17.01;51.29
54948;BME280;41113;41.882;12.530;2023-04-01T16:51:17;100247.97;;;16.93;52.42
54948;BME280;41113;41.882;12.530;2023-04-01T16:53:50;100246.63;;;16.89;52.30
54948;BME280;41113;41.882;12.530;2023-04-01T16:56:38;100258.25;;;16.83;52.08
54948;BME280;41113;41.882;12.530;2023-04-01T16:59:17;100259.00;;;16.77;52.62
54948;BME280;41113;41.882;12.530;2023-04-01T17:01:54;100262.72;;;16.76;52.82
54948;BME280;41113;41.882;12.530;2023-04-01T17:04:58;100259.28;;;16.82;52.91
54948;BME280;41113;41.882;12.530;2023-04-01T17:10:52;100263.66;;;16.83;52.50
54948;BME280;41113;41.882;12.530;2023-04-01T17:13:40;100261.06;;;16.75;52.19
54948;BME280;41113;41.882;12.530;2023-04-01T17:16:24;100269.75;;;16.70;52.76
54948;BME280;41113;41.882;12.530;2023-04-01T17:19:37;100273.97;;;16.73;52.90
54948;BME280;41113;41.882;12.530;2023-04-01T17:27:01;100256.97;;;16.56;52.35
54948;BME280;41113;41.882;12.530;2023-04-01T17:35:18;100266.41;;;16.45;53.48
54948;BME280;41113;41.882;12.530;2023-04-01T17:40:53;100266.13;;;16.40;53.38
54948;BME280;41113;41.882;12.530;2023-04-01T17:45:54;100265.66;;;16.52;54.17
54948;BME280;41113;41.882;12.530;2023-04-01T17:51:38;100280.78;;;16.31;53.40
54948;BME280;41113;41.882;12.530;2023-04-01T17:54:19;100289.63;;;16.25;54.57
54948;BME280;41113;41.882;12.530;2023-04-01T17:59:49;100280.53;;;16.18;55.13
54948;BME280;41113;41.882;12.530;2023-04-01T18:10:54;100295.63;;;15.98;55.77
54948;BME280;41113;41.882;12.530;2023-04-01T18:13:49;100292.28;;;15.87;55.85
54948;BME280;41113;41.882;12.530;2023-04-01T18:21:45;100297.78;;;15.79;56.24
54948;BME280;41113;41.882;12.530;2023-04-01T18:24:29;100287.00;;;15.71;56.60
54948;BME280;41113;41.882;12.530;2023-04-01T18:27:06;100290.38;;;15.73;57.04
54948;BME280;41113;41.882;12.530;2023-04-01T18:32:15;100299.69;;;15.71;57.69
54948;BME280;41113;41.882;12.530;2023-04-01T18:37:21;100302.47;;;15.63;57.57
54948;BME280;41113;41.882;12.530;2023-04-01T18:39:52;100290.44;;;15.65;57.40
54948;BME280;41113;41.882;12.530;2023-04-01T18:42:41;100294.53;;;15.61;58.09
54948;BME280;41113;41.882;12.530;2023-04-01T18:47:55;100307.38;;;15.59;58.05
54948;BME280;41113;41.882;12.530;2023-04-01T18:50:37;100309.56;;;15.55;59.11
54948;BME280;41113;41.882;12.530;2023-04-01T18:56:02;100321.97;;;15.42;59.15
54948;BME280;41113;41.882;12.530;2023-04-01T19:03:48;100323.06;;;15.24;59.75
54948;BME280;41113;41.882;12.530;2023-04-01T19:06:26;100332.88;;;15.25;59.97
54948;BME280;41113;41.882;12.530;2023-04-01T19:08:52;100338.63;;;15.22;60.00
54948;BME280;41113;41.882;12.530;2023-04-01T19:11:24;100341.09;;;14.85;63.02
54948;BME280;41113;41.882;12.530;2023-04-01T19:14:01;100353.63;;;14.61;62.84
54948;BME280;41113;41.882;12.530;2023-04-01T19:16:52;100354.66;;;14.77;63.58
54948;BME280;41113;41.882;12.530;2023-04-01T19:19:50;100357.31;;;14.85;63.91
54948;BME280;41113;41.882;12.530;2023-04-01T19:25:21;100347.84;;;14.89;64.35
54948;BME280;41113;41.882;12.530;2023-04-01T19:27:55;100353.94;;;14.83;65.65
54948;BME280;41113;41.882;12.530;2023-04-01T19:30:42;100354.31;;;14.80;64.75
54948;BME280;41113;41.882;12.530;2023-04-01T19:33:32;100351.28;;;14.75;64.88
54948;BME280;41113;41.882;12.530;2023-04-01T19:36:14;100351.78;;;14.78;64.83
54948;BME280;41113;41.882;12.530;2023-04-01T19:41:31;100362.94;;;14.75;65.56
54948;BME280;41113;41.882;12.530;2023-04-01T19:44:31;100360.72;;;14.79;66.04
54948;BME280;41113;41.882;12.530;2023-04-01T19:47:39;100363.28;;;14.64;69.54
54948;BME280;41113;41.882;12.530;2023-04-01T19:52:41;100365.13;;;14.47;67.64
54948;BME280;41113;41.882;12.530;2023-04-01T20:11:38;100361.94;;;14.68;68.50
54948;BME280;41113;41.882;12.530;2023-04-01T20:14:19;100368.84;;;14.71;68.70
54948;BME280;41113;41.882;12.530;2023-04-01T20:17:17;100371.56;;;14.71;68.24
54948;BME280;41113;41.882;12.530;2023-04-01T20:19:55;100366.00;;;14.64;69.17
54948;BME280;41113;41.882;12.530;2023-04-01T20:25:30;100368.53;;;14.49;70.19